sensor_id;sensor_type;location;lat;lon;timestamp;temperature;humidity
23815;DHT22;12088;53.078;8.720;2022-11-21T00:00:19;-1.50;99.90
23815;DHT22;12088;53.078;8.720;2022-11-21T00:02:44;-1.60;99.90
23815;DHT22;12088;53.078;8.720;2022-11-21T00:05:10;-1.60;99.90
23815;DHT22;12088;53.078;8.720;2022-11-21T00:07:36;-1.70;99.90
23815;DHT22;12088;53.078;8.720;2022-11-21T00:10:02;-1.80;99.90
23815;DHT22;12088;53.078;8.720;2022-11-21T00:12:27;-1.80;99.90
23815;DHT22;12088;53.078;8.720;2022-11-21T00:14:53;-1.90;99.90
23815;DHT22;12088;53.078;8.720;2022-11-21T00:17:19;-2.00;99.90
23815;DHT22;12088;53.078;8.720;2022-11-21T00:19:44;-2.00;99.90
23815;DHT22;12088;53.078;8.720;2022-11-21T00:22:10;-2.00;99.90
23815;DHT22;12088;53.078;8.720;2022-11-21T00:24:35;-1.90;99.90
23815;DHT22;12088;53.078;8.720;2022-11-21T00:27:01;-1.80;99.90
23815;DHT22;12088;53.078;8.720;2022-11-21T00:29:27;-1.80;99.90
23815;DHT22;12088;53.078;8.720;2022-11-21T00:31:52;-1.90;99.90
23815;DHT22;12088;53.078;8.720;2022-11-21T00:34:18;-1.80;99.90
23815;DHT22;12088;53.078;8.720;2022-11-21T00:36:43;-1.80;99.90
23815;DHT22;12088;53.078;8.720;2022-11-21T00:39:09;-1.70;99.90
23815;DHT22;12088;53.078;8.720;2022-11-21T00:41:34;-1.70;99.90
23815;DHT22;12088;53.078;8.720;2022-11-21T00:44:00;-1.70;99.90
23815;DHT22;12088;53.078;8.720;2022-11-21T00:46:25;-1.70;99.90
23815;DHT22;12088;53.078;8.720;2022-11-21T00:48:51;-1.60;99.90
23815;DHT22;12088;53.078;8.720;2022-11-21T00:51:16;-1.50;99.90
23815;DHT22;12088;53.078;8.720;2022-11-21T00:53:42;-1.50;99.90
23815;DHT22;12088;53.078;8.720;2022-11-21T00:56:07;-1.50;99.90
23815;DHT22;12088;53.078;8.720;2022-11-21T00:58:33;-1.50;99.90
23815;DHT22;12088;53.078;8.720;2022-11-21T01:01:08;-1.50;99.90
23815;DHT22;12088;53.078;8.720;2022-11-21T01:03:34;-1.40;99.90
23815;DHT22;12088;53.078;8.720;2022-11-21T01:06:02;-1.40;99.90
23815;DHT22;12088;53.078;8.720;2022-11-21T01:08:28;-1.50;99.90
23815;DHT22;12088;53.078;8.720;2022-11-21T01:10:53;-1.50;99.90
23815;DHT22;12088;53.078;8.720;2022-11-21T01:13:19;-1.60;99.90
23815;DHT22;12088;53.078;8.720;2022-11-21T01:15:44;-1.60;99.90
23815;DHT22;12088;53.078;8.720;2022-11-21T01:18:10;-1.60;99.90
23815;DHT22;12088;53.078;8.720;2022-11-21T01:20:38;-1.60;99.90
23815;DHT22;12088;53.078;8.720;2022-11-21T01:23:05;-1.60;99.90
23815;DHT22;12088;53.078;8.720;2022-11-21T01:25:33;-1.60;99.90
23815;DHT22;12088;53.078;8.720;2022-11-21T01:27:58;-1.60;99.90
23815;DHT22;12088;53.078;8.720;2022-11-21T01:30:24;-1.60;99.90
23815;DHT22;12088;53.078;8.720;2022-11-21T01:32:49;-1.70;99.90
23815;DHT22;12088;53.078;8.720;2022-11-21T01:35:16;-1.70;99.90
23815;DHT22;12088;53.078;8.720;2022-11-21T01:37:42;-1.70;99.90
23815;DHT22;12088;53.078;8.720;2022-11-21T01:40:08;-1.70;99.90
23815;DHT22;12088;53.078;8.720;2022-11-21T01:42:52;-1.70;99.90
23815;DHT22;12088;53.078;8.720;2022-11-21T01:48:11;-1.80;99.90
23815;DHT22;12088;53.078;8.720;2022-11-21T01:50:37;-1.90;99.90
23815;DHT22;12088;53.078;8.720;2022-11-21T01:53:03;-1.90;99.90
23815;DHT22;12088;53.078;8.720;2022-11-21T01:55:28;-1.90;99.90
23815;DHT22;12088;53.078;8.720;2022-11-21T01:57:54;-2.00;99.90
23815;DHT22;12088;53.078;8.720;2022-11-21T02:00:23;-2.00;99.90
23815;DHT22;12088;53.078;8.720;2022-11-21T02:02:57;-2.00;99.90
23815;DHT22;12088;53.078;8.720;2022-11-21T02:05:28;-2.00;99.90
23815;DHT22;12088;53.078;8.720;2022-11-21T02:07:57;-2.20;99.90
23815;DHT22;12088;53.078;8.720;2022-11-21T02:10:26;-2.10;99.90
23815;DHT22;12088;53.078;8.720;2022-11-21T02:12:53;-2.10;99.90
23815;DHT22;12088;53.078;8.720;2022-11-21T02:15:21;-2.20;99.90
23815;DHT22;12088;53.078;8.720;2022-11-21T02:17:47;-2.30;99.90
23815;DHT22;12088;53.078;8.720;2022-11-21T02:20:18;-2.30;99.90
23815;DHT22;12088;53.078;8.720;2022-11-21T02:23:10;-2.30;99.90
23815;DHT22;12088;53.078;8.720;2022-11-21T02:25:39;-2.20;99.90
23815;DHT22;12088;53.078;8.720;2022-11-21T02:28:08;-2.10;99.90
23815;DHT22;12088;53.078;8.720;2022-11-21T02:30:38;-2.00;99.90
23815;DHT22;12088;53.078;8.720;2022-11-21T02:33:04;-2.00;99.90
23815;DHT22;12088;53.078;8.720;2022-11-21T02:35:30;-2.00;99.90
23815;DHT22;12088;53.078;8.720;2022-11-21T02:38:06;-2.10;99.90
23815;DHT22;12088;53.078;8.720;2022-11-21T02:40:39;-2.20;99.90
23815;DHT22;12088;53.078;8.720;2022-11-21T02:43:12;-2.20;99.90
23815;DHT22;12088;53.078;8.720;2022-11-21T02:45:40;-2.40;99.90
23815;DHT22;12088;53.078;8.720;2022-11-21T02:48:07;-2.40;99.90
23815;DHT22;12088;53.078;8.720;2022-11-21T02:50:34;-2.40;99.90
23815;DHT22;12088;53.078;8.720;2022-11-21T02:53:01;-2.60;99.90
23815;DHT22;12088;53.078;8.720;2022-11-21T02:55:27;-2.70;99.90
23815;DHT22;12088;53.078;8.720;2022-11-21T02:57:53;-2.90;99.90
23815;DHT22;12088;53.078;8.720;2022-11-21T03:00:19;-2.90;99.90
23815;DHT22;12088;53.078;8.720;2022-11-21T03:02:45;-2.90;99.90
23815;DHT22;12088;53.078;8.720;2022-11-21T03:05:13;-3.00;99.90
23815;DHT22;12088;53.078;8.720;2022-11-21T03:07:39;-3.00;99.90
23815;DHT22;12088;53.078;8.720;2022-11-21T03:10:05;-2.90;99.90
23815;DHT22;12088;53.078;8.720;2022-11-21T03:12:31;-2.90;99.90
23815;DHT22;12088;53.078;8.720;2022-11-21T03:14:56;-2.90;99.90
23815;DHT22;12088;53.078;8.720;2022-11-21T03:17:22;-2.80;99.90
23815;DHT22;12088;53.078;8.720;2022-11-21T03:19:47;-2.70;99.90
23815;DHT22;12088;53.078;8.720;2022-11-21T03:22:14;-2.70;99.90
23815;DHT22;12088;53.078;8.720;2022-11-21T03:24:40;-2.70;99.90
23815;DHT22;12088;53.078;8.720;2022-11-21T03:27:05;-2.80;99.90
23815;DHT22;12088;53.078;8.720;2022-11-21T03:29:31;-2.80;99.90
23815;DHT22;12088;53.078;8.720;2022-11-21T03:31:56;-2.90;99.90
23815;DHT22;12088;53.078;8.720;2022-11-21T03:34:22;-2.90;99.90
23815;DHT22;12088;53.078;8.720;2022-11-21T03:36:49;-3.00;99.90
23815;DHT22;12088;53.078;8.720;2022-11-21T03:39:15;-3.10;99.90
23815;DHT22;12088;53.078;8.720;2022-11-21T03:41:40;-3.10;99.90
23815;DHT22;12088;53.078;8.720;2022-11-21T03:44:10;-3.10;99.90
23815;DHT22;12088;53.078;8.720;2022-11-21T03:46:38;-3.20;99.90
23815;DHT22;12088;53.078;8.720;2022-11-21T03:49:05;-3.40;99.90
23815;DHT22;12088;53.078;8.720;2022-11-21T03:51:30;-3.40;99.90
23815;DHT22;12088;53.078;8.720;2022-11-21T03:53:56;-3.50;99.90
23815;DHT22;12088;53.078;8.720;2022-11-21T03:56:22;-3.40;99.90
23815;DHT22;12088;53.078;8.720;2022-11-21T03:58:47;-3.60;99.90
23815;DHT22;12088;53.078;8.720;2022-11-21T04:01:13;-3.60;99.90
23815;DHT22;12088;53.078;8.720;2022-11-21T04:03:41;-3.70;99.90
23815;DHT22;12088;53.078;8.720;2022-11-21T04:06:07;-3.70;99.90
23815;DHT22;12088;53.078;8.720;2022-11-21T04:08:33;-3.70;99.90
23815;DHT22;12088;53.078;8.720;2022-11-21T04:10:59;-3.60;99.90
23815;DHT22;12088;53.078;8.720;2022-11-21T04:13:25;-3.60;99.90
23815;DHT22;12088;53.078;8.720;2022-11-21T04:15:50;-3.60;99.90
23815;DHT22;12088;53.078;8.720;2022-11-21T04:18:16;-3.70;99.90
23815;DHT22;12088;53.078;8.720;2022-11-21T04:20:42;-3.70;99.90
23815;DHT22;12088;53.078;8.720;2022-11-21T04:23:07;-3.70;99.90
23815;DHT22;12088;53.078;8.720;2022-11-21T04:25:33;-3.70;99.90
23815;DHT22;12088;53.078;8.720;2022-11-21T04:28:00;-3.60;99.90
23815;DHT22;12088;53.078;8.720;2022-11-21T04:30:26;-3.40;99.90
23815;DHT22;12088;53.078;8.720;2022-11-21T04:32:53;-3.40;99.90
23815;DHT22;12088;53.078;8.720;2022-11-21T04:35:19;-3.40;99.90
23815;DHT22;12088;53.078;8.720;2022-11-21T04:37:45;-3.40;99.90
23815;DHT22;12088;53.078;8.720;2022-11-21T04:40:11;-3.50;99.90
23815;DHT22;12088;53.078;8.720;2022-11-21T04:42:43;-3.60;99.90
23815;DHT22;12088;53.078;8.720;2022-11-21T04:45:10;-3.60;99.90
23815;DHT22;12088;53.078;8.720;2022-11-21T04:47:39;-3.60;99.90
23815;DHT22;12088;53.078;8.720;2022-11-21T04:50:06;-3.50;99.90
23815;DHT22;12088;53.078;8.720;2022-11-21T04:52:32;-3.50;99.90
23815;DHT22;12088;53.078;8.720;2022-11-21T04:54:58;-3.50;99.90
23815;DHT22;12088;53.078;8.720;2022-11-21T04:57:25;-3.40;99.90
23815;DHT22;12088;53.078;8.720;2022-11-21T04:59:51;-3.30;99.90
23815;DHT22;12088;53.078;8.720;2022-11-21T05:02:17;-3.20;99.90
23815;DHT22;12088;53.078;8.720;2022-11-21T05:04:42;-3.10;99.90
23815;DHT22;12088;53.078;8.720;2022-11-21T05:07:08;-3.10;99.90
23815;DHT22;12088;53.078;8.720;2022-11-21T05:09:33;-3.00;99.90
23815;DHT22;12088;53.078;8.720;2022-11-21T05:11:59;-3.10;99.90
23815;DHT22;12088;53.078;8.720;2022-11-21T05:14:43;-3.10;99.90
23815;DHT22;12088;53.078;8.720;2022-11-21T05:17:09;-3.20;99.90
23815;DHT22;12088;53.078;8.720;2022-11-21T05:19:34;-3.20;99.90
23815;DHT22;12088;53.078;8.720;2022-11-21T05:22:00;-3.30;99.90
23815;DHT22;12088;53.078;8.720;2022-11-21T05:24:25;-3.40;99.90
23815;DHT22;12088;53.078;8.720;2022-11-21T05:26:51;-3.40;99.90
23815;DHT22;12088;53.078;8.720;2022-11-21T05:29:16;-3.50;99.90
23815;DHT22;12088;53.078;8.720;2022-11-21T05:31:41;-3.50;99.90
23815;DHT22;12088;53.078;8.720;2022-11-21T05:34:07;-3.60;99.90
23815;DHT22;12088;53.078;8.720;2022-11-21T05:36:33;-3.60;99.90
23815;DHT22;12088;53.078;8.720;2022-11-21T05:38:58;-3.60;99.90
23815;DHT22;12088;53.078;8.720;2022-11-21T05:41:24;-3.50;99.90
23815;DHT22;12088;53.078;8.720;2022-11-21T05:43:49;-3.60;99.90
23815;DHT22;12088;53.078;8.720;2022-11-21T05:46:17;-3.60;99.90
23815;DHT22;12088;53.078;8.720;2022-11-21T05:48:44;-3.70;99.90
23815;DHT22;12088;53.078;8.720;2022-11-21T05:51:10;-3.60;99.90
23815;DHT22;12088;53.078;8.720;2022-11-21T05:53:35;-3.60;99.90
23815;DHT22;12088;53.078;8.720;2022-11-21T05:56:06;-3.60;99.90
23815;DHT22;12088;53.078;8.720;2022-11-21T05:58:32;-3.60;99.90
23815;DHT22;12088;53.078;8.720;2022-11-21T06:00:58;-3.60;99.90
23815;DHT22;12088;53.078;8.720;2022-11-21T06:03:25;-3.70;99.90
23815;DHT22;12088;53.078;8.720;2022-11-21T06:08:22;-3.70;99.90
23815;DHT22;12088;53.078;8.720;2022-11-21T06:10:48;-3.70;99.90
23815;DHT22;12088;53.078;8.720;2022-11-21T06:13:13;-3.70;99.90
23815;DHT22;12088;53.078;8.720;2022-11-21T06:18:23;-3.80;99.90
23815;DHT22;12088;53.078;8.720;2022-11-21T06:20:49;-3.70;99.90
23815;DHT22;12088;53.078;8.720;2022-11-21T06:23:15;-3.70;99.90
23815;DHT22;12088;53.078;8.720;2022-11-21T06:25:41;-3.70;99.90
23815;DHT22;12088;53.078;8.720;2022-11-21T06:28:07;-3.70;99.90
23815;DHT22;12088;53.078;8.720;2022-11-21T06:30:32;-3.60;99.90
23815;DHT22;12088;53.078;8.720;2022-11-21T06:32:58;-3.50;99.90
23815;DHT22;12088;53.078;8.720;2022-11-21T06:35:23;-3.40;99.90
23815;DHT22;12088;53.078;8.720;2022-11-21T06:37:49;-3.20;99.90
23815;DHT22;12088;53.078;8.720;2022-11-21T06:40:14;-3.20;99.90
23815;DHT22;12088;53.078;8.720;2022-11-21T06:42:40;-3.20;99.90
23815;DHT22;12088;53.078;8.720;2022-11-21T06:45:06;-3.40;99.90
23815;DHT22;12088;53.078;8.720;2022-11-21T06:47:35;-3.50;99.90
23815;DHT22;12088;53.078;8.720;2022-11-21T06:50:00;-3.60;99.90
23815;DHT22;12088;53.078;8.720;2022-11-21T06:52:26;-3.40;99.90
23815;DHT22;12088;53.078;8.720;2022-11-21T06:54:51;-3.20;99.90
23815;DHT22;12088;53.078;8.720;2022-11-21T06:57:17;-3.20;99.90
23815;DHT22;12088;53.078;8.720;2022-11-21T06:59:42;-3.20;99.90
23815;DHT22;12088;53.078;8.720;2022-11-21T07:02:12;-3.20;99.90
23815;DHT22;12088;53.078;8.720;2022-11-21T07:04:37;-3.20;99.90
23815;DHT22;12088;53.078;8.720;2022-11-21T07:07:03;-3.20;99.90
23815;DHT22;12088;53.078;8.720;2022-11-21T07:09:28;-3.20;99.90
23815;DHT22;12088;53.078;8.720;2022-11-21T07:11:54;-3.20;99.90
23815;DHT22;12088;53.078;8.720;2022-11-21T07:14:19;-3.20;99.90
23815;DHT22;12088;53.078;8.720;2022-11-21T07:16:45;-3.20;99.90
23815;DHT22;12088;53.078;8.720;2022-11-21T07:19:10;-3.20;99.90
23815;DHT22;12088;53.078;8.720;2022-11-21T07:21:36;-3.20;99.90
23815;DHT22;12088;53.078;8.720;2022-11-21T07:24:02;-3.20;99.90
23815;DHT22;12088;53.078;8.720;2022-11-21T07:26:27;-3.10;99.90
23815;DHT22;12088;53.078;8.720;2022-11-21T07:28:53;-3.30;99.90
23815;DHT22;12088;53.078;8.720;2022-11-21T07:31:18;-3.40;99.90
23815;DHT22;12088;53.078;8.720;2022-11-21T07:33:44;-3.30;99.90
23815;DHT22;12088;53.078;8.720;2022-11-21T07:36:11;-3.20;99.90
23815;DHT22;12088;53.078;8.720;2022-11-21T07:38:37;-3.10;99.90
23815;DHT22;12088;53.078;8.720;2022-11-21T07:41:02;-3.30;99.90
23815;DHT22;12088;53.078;8.720;2022-11-21T07:43:28;-3.40;99.90
23815;DHT22;12088;53.078;8.720;2022-11-21T07:45:55;-3.50;99.90
23815;DHT22;12088;53.078;8.720;2022-11-21T07:48:20;-3.30;99.90
23815;DHT22;12088;53.078;8.720;2022-11-21T07:50:46;-3.10;99.90
23815;DHT22;12088;53.078;8.720;2022-11-21T07:53:12;-2.90;99.90
23815;DHT22;12088;53.078;8.720;2022-11-21T07:55:38;-2.80;99.90
23815;DHT22;12088;53.078;8.720;2022-11-21T07:58:06;-2.70;99.90
23815;DHT22;12088;53.078;8.720;2022-11-21T08:00:34;-2.60;99.90
23815;DHT22;12088;53.078;8.720;2022-11-21T08:03:00;-2.50;99.90
23815;DHT22;12088;53.078;8.720;2022-11-21T08:05:25;-2.60;99.90
23815;DHT22;12088;53.078;8.720;2022-11-21T08:07:51;-2.40;99.90
23815;DHT22;12088;53.078;8.720;2022-11-21T08:10:17;-2.20;99.90
23815;DHT22;12088;53.078;8.720;2022-11-21T08:12:43;-1.90;99.90
23815;DHT22;12088;53.078;8.720;2022-11-21T08:15:10;-2.00;99.90
23815;DHT22;12088;53.078;8.720;2022-11-21T08:17:36;-1.50;99.90
23815;DHT22;12088;53.078;8.720;2022-11-21T08:20:04;-1.30;99.90
23815;DHT22;12088;53.078;8.720;2022-11-21T08:22:29;-1.00;99.90
23815;DHT22;12088;53.078;8.720;2022-11-21T08:24:55;-0.60;99.90
23815;DHT22;12088;53.078;8.720;2022-11-21T08:27:22;-0.60;99.90
23815;DHT22;12088;53.078;8.720;2022-11-21T08:29:48;-0.20;99.90
23815;DHT22;12088;53.078;8.720;2022-11-21T08:32:14;0.20;99.90
23815;DHT22;12088;53.078;8.720;2022-11-21T08:34:40;0.50;99.90
23815;DHT22;12088;53.078;8.720;2022-11-21T08:37:05;0.80;99.90
23815;DHT22;12088;53.078;8.720;2022-11-21T08:39:31;1.10;99.90
23815;DHT22;12088;53.078;8.720;2022-11-21T08:41:57;1.50;99.90
23815;DHT22;12088;53.078;8.720;2022-11-21T08:44:29;1.40;99.90
23815;DHT22;12088;53.078;8.720;2022-11-21T08:46:55;1.00;99.90
23815;DHT22;12088;53.078;8.720;2022-11-21T08:49:21;0.50;99.90
23815;DHT22;12088;53.078;8.720;2022-11-21T08:51:47;0.10;99.90
23815;DHT22;12088;53.078;8.720;2022-11-21T08:54:17;0.00;99.90
23815;DHT22;12088;53.078;8.720;2022-11-21T08:56:43;-0.20;99.90
23815;DHT22;12088;53.078;8.720;2022-11-21T08:59:09;-0.40;99.90
23815;DHT22;12088;53.078;8.720;2022-11-21T09:01:35;-0.40;99.90
23815;DHT22;12088;53.078;8.720;2022-11-21T09:04:01;-0.40;99.90
23815;DHT22;12088;53.078;8.720;2022-11-21T09:06:26;-0.30;99.90
23815;DHT22;12088;53.078;8.720;2022-11-21T09:08:52;-0.60;99.90
23815;DHT22;12088;53.078;8.720;2022-11-21T09:11:18;-0.80;99.90
23815;DHT22;12088;53.078;8.720;2022-11-21T09:13:43;-0.60;99.90
23815;DHT22;12088;53.078;8.720;2022-11-21T09:16:29;0.50;99.90
23815;DHT22;12088;53.078;8.720;2022-11-21T09:19:13;2.60;99.90
23815;DHT22;12088;53.078;8.720;2022-11-21T09:21:38;4.10;99.90
23815;DHT22;12088;53.078;8.720;2022-11-21T09:24:04;5.10;99.90
23815;DHT22;12088;53.078;8.720;2022-11-21T09:26:29;5.00;99.90
23815;DHT22;12088;53.078;8.720;2022-11-21T09:28:55;5.70;99.90
23815;DHT22;12088;53.078;8.720;2022-11-21T09:31:21;6.40;99.90
23815;DHT22;12088;53.078;8.720;2022-11-21T09:33:47;6.90;99.90
23815;DHT22;12088;53.078;8.720;2022-11-21T09:36:12;6.80;99.90
23815;DHT22;12088;53.078;8.720;2022-11-21T09:38:38;7.40;99.90
23815;DHT22;12088;53.078;8.720;2022-11-21T09:41:40;6.60;99.90
23815;DHT22;12088;53.078;8.720;2022-11-21T09:49:45;7.90;99.90
23815;DHT22;12088;53.078;8.720;2022-11-21T09:52:12;8.90;99.90
23815;DHT22;12088;53.078;8.720;2022-11-21T09:54:47;8.90;99.90
23815;DHT22;12088;53.078;8.720;2022-11-21T09:57:17;9.00;99.90
23815;DHT22;12088;53.078;8.720;2022-11-21T09:59:44;8.60;99.90
23815;DHT22;12088;53.078;8.720;2022-11-21T10:02:18;8.10;99.90
23815;DHT22;12088;53.078;8.720;2022-11-21T10:04:46;8.60;99.90
23815;DHT22;12088;53.078;8.720;2022-11-21T10:07:23;8.60;99.90
23815;DHT22;12088;53.078;8.720;2022-11-21T10:21:02;8.70;99.90
23815;DHT22;12088;53.078;8.720;2022-11-21T10:26:46;10.90;99.90
23815;DHT22;12088;53.078;8.720;2022-11-21T10:29:34;8.80;99.90
23815;DHT22;12088;53.078;8.720;2022-11-21T10:32:09;7.90;99.90
23815;DHT22;12088;53.078;8.720;2022-11-21T10:34:37;6.60;99.90
23815;DHT22;12088;53.078;8.720;2022-11-21T10:37:25;5.90;99.90
23815;DHT22;12088;53.078;8.720;2022-11-21T10:39:53;5.50;99.90
23815;DHT22;12088;53.078;8.720;2022-11-21T10:45:25;5.40;99.90
23815;DHT22;12088;53.078;8.720;2022-11-21T10:47:51;6.00;99.90
23815;DHT22;12088;53.078;8.720;2022-11-21T10:53:17;7.60;99.90
23815;DHT22;12088;53.078;8.720;2022-11-21T10:56:12;6.70;99.90
23815;DHT22;12088;53.078;8.720;2022-11-21T10:58:44;6.20;99.90
23815;DHT22;12088;53.078;8.720;2022-11-21T11:01:32;6.20;99.90
23815;DHT22;12088;53.078;8.720;2022-11-21T11:06:37;6.00;99.90
23815;DHT22;12088;53.078;8.720;2022-11-21T11:09:03;6.00;99.90
23815;DHT22;12088;53.078;8.720;2022-11-21T11:11:29;6.30;99.90
23815;DHT22;12088;53.078;8.720;2022-11-21T11:13:57;6.70;99.90
23815;DHT22;12088;53.078;8.720;2022-11-21T11:16:25;7.00;99.90
23815;DHT22;12088;53.078;8.720;2022-11-21T11:18:58;7.70;99.90
23815;DHT22;12088;53.078;8.720;2022-11-21T11:21:29;7.60;99.90
23815;DHT22;12088;53.078;8.720;2022-11-21T11:24:25;6.90;99.90
23815;DHT22;12088;53.078;8.720;2022-11-21T11:26:58;7.20;99.90
23815;DHT22;12088;53.078;8.720;2022-11-21T11:29:31;7.40;99.90
23815;DHT22;12088;53.078;8.720;2022-11-21T11:32:01;7.30;99.90
23815;DHT22;12088;53.078;8.720;2022-11-21T11:34:58;6.80;99.90
23815;DHT22;12088;53.078;8.720;2022-11-21T11:37:34;6.90;99.90
23815;DHT22;12088;53.078;8.720;2022-11-21T11:48:58;7.50;99.90
23815;DHT22;12088;53.078;8.720;2022-11-21T11:51:35;7.60;99.90
23815;DHT22;12088;53.078;8.720;2022-11-21T11:54:07;8.10;99.90
23815;DHT22;12088;53.078;8.720;2022-11-21T11:56:37;7.60;99.90
23815;DHT22;12088;53.078;8.720;2022-11-21T12:04:20;7.60;99.90
23815;DHT22;12088;53.078;8.720;2022-11-21T12:06:54;8.00;99.90
23815;DHT22;12088;53.078;8.720;2022-11-21T12:17:34;8.20;99.90
23815;DHT22;12088;53.078;8.720;2022-11-21T12:20:10;8.10;99.90
23815;DHT22;12088;53.078;8.720;2022-11-21T12:22:37;7.00;99.90
23815;DHT22;12088;53.078;8.720;2022-11-21T12:25:10;7.30;99.90
23815;DHT22;12088;53.078;8.720;2022-11-21T12:27:36;8.10;99.90
23815;DHT22;12088;53.078;8.720;2022-11-21T12:36:18;7.30;99.90
23815;DHT22;12088;53.078;8.720;2022-11-21T12:39:14;7.40;99.90
23815;DHT22;12088;53.078;8.720;2022-11-21T12:41:59;6.20;99.90
23815;DHT22;12088;53.078;8.720;2022-11-21T12:57:15;5.50;99.90
23815;DHT22;12088;53.078;8.720;2022-11-21T13:03:04;5.30;99.90
23815;DHT22;12088;53.078;8.720;2022-11-21T13:05:43;5.00;99.90
23815;DHT22;12088;53.078;8.720;2022-11-21T13:08:13;5.30;99.90
23815;DHT22;12088;53.078;8.720;2022-11-21T13:10:53;5.30;99.90
23815;DHT22;12088;53.078;8.720;2022-11-21T13:13:43;5.40;99.90
23815;DHT22;12088;53.078;8.720;2022-11-21T13:16:17;5.20;99.90
23815;DHT22;12088;53.078;8.720;2022-11-21T13:19:16;5.00;99.90
23815;DHT22;12088;53.078;8.720;2022-11-21T13:21:48;4.80;99.90
23815;DHT22;12088;53.078;8.720;2022-11-21T13:24:53;4.70;99.90
23815;DHT22;12088;53.078;8.720;2022-11-21T13:27:39;4.60;99.90
23815;DHT22;12088;53.078;8.720;2022-11-21T13:32:53;4.30;99.90
23815;DHT22;12088;53.078;8.720;2022-11-21T13:43:24;4.20;99.90
23815;DHT22;12088;53.078;8.720;2022-11-21T13:45:50;4.20;99.90
23815;DHT22;12088;53.078;8.720;2022-11-21T14:04:38;4.00;99.90
23815;DHT22;12088;53.078;8.720;2022-11-21T14:07:26;4.00;99.90
23815;DHT22;12088;53.078;8.720;2022-11-21T14:09:55;3.90;99.90
23815;DHT22;12088;53.078;8.720;2022-11-21T14:12:26;3.80;99.90
23815;DHT22;12088;53.078;8.720;2022-11-21T14:20:17;3.50;99.90
23815;DHT22;12088;53.078;8.720;2022-11-21T14:23:03;3.50;99.90
23815;DHT22;12088;53.078;8.720;2022-11-21T14:25:36;3.50;99.90
23815;DHT22;12088;53.078;8.720;2022-11-21T14:28:09;3.40;99.90
23815;DHT22;12088;53.078;8.720;2022-11-21T14:30:38;3.30;99.90
23815;DHT22;12088;53.078;8.720;2022-11-21T14:33:24;3.10;99.90
23815;DHT22;12088;53.078;8.720;2022-11-21T14:38:27;2.70;99.90
23815;DHT22;12088;53.078;8.720;2022-11-21T14:46:38;2.50;99.90
23815;DHT22;12088;53.078;8.720;2022-11-21T14:51:59;2.30;99.90
23815;DHT22;12088;53.078;8.720;2022-11-21T14:54:49;2.00;99.90
23815;DHT22;12088;53.078;8.720;2022-11-21T14:57:28;1.90;99.90
23815;DHT22;12088;53.078;8.720;2022-11-21T14:59:55;1.80;99.90
23815;DHT22;12088;53.078;8.720;2022-11-21T15:02:23;1.80;99.90
23815;DHT22;12088;53.078;8.720;2022-11-21T15:04:51;1.80;99.90
23815;DHT22;12088;53.078;8.720;2022-11-21T15:07:25;1.80;99.90
23815;DHT22;12088;53.078;8.720;2022-11-21T15:09:51;1.70;99.90
23815;DHT22;12088;53.078;8.720;2022-11-21T15:15:33;1.50;99.90
23815;DHT22;12088;53.078;8.720;2022-11-21T15:18:02;1.30;99.90
23815;DHT22;12088;53.078;8.720;2022-11-21T15:20:29;1.30;99.90
23815;DHT22;12088;53.078;8.720;2022-11-21T15:22:57;1.20;99.90
23815;DHT22;12088;53.078;8.720;2022-11-21T15:25:25;1.00;99.90
23815;DHT22;12088;53.078;8.720;2022-11-21T15:28:06;0.90;99.90
23815;DHT22;12088;53.078;8.720;2022-11-21T15:30:35;0.90;99.90
23815;DHT22;12088;53.078;8.720;2022-11-21T15:35:53;0.70;99.90
23815;DHT22;12088;53.078;8.720;2022-11-21T15:38:32;0.70;99.90
23815;DHT22;12088;53.078;8.720;2022-11-21T15:43:51;0.90;99.90
23815;DHT22;12088;53.078;8.720;2022-11-21T15:46:21;1.10;99.90
23815;DHT22;12088;53.078;8.720;2022-11-21T15:48:55;1.30;99.90
23815;DHT22;12088;53.078;8.720;2022-11-21T15:51:25;1.30;99.90
23815;DHT22;12088;53.078;8.720;2022-11-21T15:53:51;1.20;99.90
23815;DHT22;12088;53.078;8.720;2022-11-21T15:56:19;0.90;99.90
23815;DHT22;12088;53.078;8.720;2022-11-21T15:58:45;0.90;99.90
23815;DHT22;12088;53.078;8.720;2022-11-21T16:01:19;1.10;99.90
23815;DHT22;12088;53.078;8.720;2022-11-21T16:03:47;1.10;99.90
23815;DHT22;12088;53.078;8.720;2022-11-21T16:06:12;1.10;99.90
23815;DHT22;12088;53.078;8.720;2022-11-21T16:08:39;1.20;99.90
23815;DHT22;12088;53.078;8.720;2022-11-21T16:11:04;1.20;99.90
23815;DHT22;12088;53.078;8.720;2022-11-21T16:13:30;1.20;99.90
23815;DHT22;12088;53.078;8.720;2022-11-21T16:15:55;1.20;99.90
23815;DHT22;12088;53.078;8.720;2022-11-21T16:18:21;1.00;99.90
23815;DHT22;12088;53.078;8.720;2022-11-21T16:20:46;1.00;99.90
23815;DHT22;12088;53.078;8.720;2022-11-21T16:23:12;1.00;99.90
23815;DHT22;12088;53.078;8.720;2022-11-21T16:25:52;0.90;99.90
23815;DHT22;12088;53.078;8.720;2022-11-21T16:28:18;0.80;99.90
23815;DHT22;12088;53.078;8.720;2022-11-21T16:30:43;0.70;99.90
23815;DHT22;12088;53.078;8.720;2022-11-21T16:33:09;0.70;99.90
23815;DHT22;12088;53.078;8.720;2022-11-21T16:35:37;0.70;99.90
23815;DHT22;12088;53.078;8.720;2022-11-21T16:38:06;0.60;99.90
23815;DHT22;12088;53.078;8.720;2022-11-21T16:40:32;0.70;99.90
23815;DHT22;12088;53.078;8.720;2022-11-21T16:43:07;0.70;99.90
23815;DHT22;12088;53.078;8.720;2022-11-21T16:45:33;0.60;99.90
23815;DHT22;12088;53.078;8.720;2022-11-21T16:47:58;0.60;99.90
23815;DHT22;12088;53.078;8.720;2022-11-21T16:50:24;0.80;99.90
23815;DHT22;12088;53.078;8.720;2022-11-21T16:52:49;0.80;99.90
23815;DHT22;12088;53.078;8.720;2022-11-21T16:55:15;0.80;99.90
23815;DHT22;12088;53.078;8.720;2022-11-21T16:57:40;0.80;99.90
23815;DHT22;12088;53.078;8.720;2022-11-21T17:00:09;0.80;99.90
23815;DHT22;12088;53.078;8.720;2022-11-21T17:02:36;0.80;99.90
23815;DHT22;12088;53.078;8.720;2022-11-21T17:05:03;0.80;99.90
23815;DHT22;12088;53.078;8.720;2022-11-21T17:07:32;0.80;99.90
23815;DHT22;12088;53.078;8.720;2022-11-21T17:09:58;0.70;99.90
23815;DHT22;12088;53.078;8.720;2022-11-21T17:12:24;0.80;99.90
23815;DHT22;12088;53.078;8.720;2022-11-21T17:14:50;0.80;99.90
23815;DHT22;12088;53.078;8.720;2022-11-21T17:17:16;0.80;99.90
23815;DHT22;12088;53.078;8.720;2022-11-21T17:19:41;0.80;99.90
23815;DHT22;12088;53.078;8.720;2022-11-21T17:22:07;0.80;99.90
23815;DHT22;12088;53.078;8.720;2022-11-21T17:24:33;0.90;99.90
23815;DHT22;12088;53.078;8.720;2022-11-21T17:26:58;0.80;99.90
23815;DHT22;12088;53.078;8.720;2022-11-21T17:29:28;0.70;99.90
23815;DHT22;12088;53.078;8.720;2022-11-21T17:31:54;0.60;99.90
23815;DHT22;12088;53.078;8.720;2022-11-21T17:34:20;0.50;99.90
23815;DHT22;12088;53.078;8.720;2022-11-21T17:36:45;0.60;99.90
23815;DHT22;12088;53.078;8.720;2022-11-21T17:39:11;0.50;99.90
23815;DHT22;12088;53.078;8.720;2022-11-21T17:41:37;0.50;99.90
23815;DHT22;12088;53.078;8.720;2022-11-21T17:44:04;0.50;99.90
23815;DHT22;12088;53.078;8.720;2022-11-21T17:46:30;0.50;99.90
23815;DHT22;12088;53.078;8.720;2022-11-21T17:48:56;0.40;99.90
23815;DHT22;12088;53.078;8.720;2022-11-21T17:51:24;0.40;99.90
23815;DHT22;12088;53.078;8.720;2022-11-21T17:53:51;0.30;99.90
23815;DHT22;12088;53.078;8.720;2022-11-21T17:56:19;0.30;99.90
23815;DHT22;12088;53.078;8.720;2022-11-21T17:58:45;0.30;99.90